createdAt,value
2023-05-11T00:00:23.576Z,56.03
2023-05-11T00:03:26.315Z,56.10
2023-05-11T00:06:29.019Z,56.15
2023-05-11T00:09:31.764Z,56.04
2023-05-11T00:12:34.353Z,56.40
2023-05-11T00:15:37.214Z,56.07
2023-05-11T00:18:39.905Z,56.19
2023-05-11T00:21:42.378Z,56.35
2023-05-11T00:24:44.783Z,56.18
2023-05-11T00:27:47.250Z,56.29
2023-05-11T00:30:49.652Z,56.32
2023-05-11T00:33:52.030Z,56.28
2023-05-11T00:36:54.430Z,56.52
2023-05-11T00:39:56.800Z,56.53
2023-05-11T00:42:59.219Z,56.46
2023-05-11T00:46:03.409Z,56.18
2023-05-11T00:49:06.321Z,56.23
2023-05-11T00:52:08.924Z,56.27
2023-05-11T00:55:13.779Z,56.38
2023-05-11T00:58:16.658Z,56.16
2023-05-11T01:01:19.214Z,56.27
2023-05-11T01:04:21.767Z,56.44
2023-05-11T01:07:33.406Z,56.44
2023-05-11T01:10:49.687Z,56.29
2023-05-11T01:13:58.451Z,56.24
2023-05-11T01:17:05.178Z,56.33
2023-05-11T01:20:12.926Z,56.37
2023-05-11T01:23:43.582Z,56.21
2023-05-11T01:27:21.583Z,56.39
2023-05-11T01:30:33.954Z,56.88
2023-05-11T01:33:40.030Z,56.60
2023-05-11T01:37:27.247Z,56.63
2023-05-11T01:40:33.027Z,56.56
2023-05-11T01:43:37.152Z,56.49
2023-05-11T01:46:40.137Z,56.55
2023-05-11T01:49:44.135Z,56.48
2023-05-11T01:52:47.699Z,56.34
2023-05-11T01:55:51.547Z,56.29
2023-05-11T01:58:55.858Z,56.33
2023-05-11T02:01:59.102Z,56.56
2023-05-11T02:05:02.198Z,56.46
2023-05-11T02:08:06.861Z,56.65
2023-05-11T02:11:10.576Z,56.54
2023-05-11T02:14:15.150Z,56.57
2023-05-11T02:17:19.703Z,56.85
2023-05-11T02:20:22.616Z,56.46
2023-05-11T02:23:26.500Z,56.80
2023-05-11T02:26:29.865Z,56.59
2023-05-11T02:29:32.885Z,56.57
2023-05-11T02:32:38.505Z,56.62
2023-05-11T02:35:43.494Z,56.49
2023-05-11T02:38:47.274Z,56.81
2023-05-11T02:41:56.719Z,56.47
2023-05-11T02:45:02.524Z,56.46
2023-05-11T02:48:08.486Z,56.58
2023-05-11T02:51:12.858Z,56.62
2023-05-11T02:54:20.866Z,56.35
2023-05-11T02:57:26.136Z,56.56
2023-05-11T03:00:29.455Z,56.82
2023-05-11T03:03:32.128Z,56.76
2023-05-11T03:06:35.895Z,56.56
2023-05-11T03:09:40.777Z,56.96
2023-05-11T03:12:44.139Z,56.64
2023-05-11T03:15:47.446Z,56.97
2023-05-11T03:18:50.043Z,56.64
2023-05-11T03:21:54.599Z,56.89
2023-05-11T03:24:57.119Z,56.99
2023-05-11T03:28:00.438Z,56.95
2023-05-11T03:31:03.733Z,56.53
2023-05-11T03:34:07.585Z,56.87
2023-05-11T03:37:15.210Z,56.56
2023-05-11T03:40:19.082Z,56.57
2023-05-11T03:43:27.531Z,56.76
2023-05-11T03:46:32.403Z,56.77
2023-05-11T03:49:39.826Z,57.12
2023-05-11T03:52:42.983Z,56.72
2023-05-11T03:55:45.453Z,56.99
2023-05-11T03:58:47.952Z,56.90
2023-05-11T04:01:54.014Z,56.90
2023-05-11T04:04:56.414Z,56.63
2023-05-11T04:07:58.797Z,56.51
2023-05-11T04:11:01.132Z,56.41
2023-05-11T04:14:04.072Z,57.28
2023-05-11T04:17:06.445Z,57.74
2023-05-11T04:20:09.048Z,58.54
2023-05-11T04:23:11.427Z,58.99
2023-05-11T04:26:13.766Z,59.72
2023-05-11T04:29:16.101Z,59.89
2023-05-11T04:32:18.441Z,59.90
2023-05-11T04:35:22.133Z,60.03
2023-05-11T04:38:24.614Z,60.47
2023-05-11T04:41:31.856Z,60.45
2023-05-11T04:44:36.515Z,60.42
2023-05-11T04:47:39.125Z,60.45
2023-05-11T04:50:43.529Z,60.28
2023-05-11T04:53:46.927Z,60.47
2023-05-11T04:56:50.038Z,60.51
2023-05-11T04:59:52.569Z,60.01
2023-05-11T05:02:55.045Z,60.03
2023-05-11T05:05:57.531Z,59.24
2023-05-11T05:08:59.990Z,58.81
2023-05-11T05:12:02.458Z,58.33
2023-05-11T05:15:05.786Z,58.95
2023-05-11T05:18:08.185Z,58.69
2023-05-11T05:21:11.287Z,58.47
2023-05-11T05:24:13.858Z,58.49
2023-05-11T05:27:16.317Z,58.49
2023-05-11T05:30:19.184Z,58.56
2023-05-11T05:33:22.782Z,58.19
2023-05-11T05:36:25.605Z,58.41
2023-05-11T05:39:28.054Z,58.42
2023-05-11T05:42:31.554Z,58.25
2023-05-11T05:45:34.356Z,57.08
2023-05-11T05:48:40.583Z,56.66
2023-05-11T05:51:45.378Z,56.87
2023-05-11T05:55:47.706Z,56.61
2023-05-11T05:58:50.541Z,56.70
2023-05-11T06:02:16.742Z,56.52
2023-05-11T06:05:26.106Z,56.42
2023-05-11T06:08:29.231Z,56.18
2023-05-11T06:11:31.713Z,55.90
2023-05-11T06:14:41.698Z,56.06
2023-05-11T06:17:44.587Z,55.70
2023-05-11T06:20:48.557Z,55.79
2023-05-11T06:23:52.985Z,56.10
2023-05-11T06:26:56.955Z,55.84
2023-05-11T06:29:59.677Z,56.11
2023-05-11T06:33:07.665Z,55.81
2023-05-11T06:36:12.786Z,55.99
2023-05-11T06:39:15.445Z,55.82
2023-05-11T06:42:18.857Z,55.84
2023-05-11T06:45:21.759Z,55.62
2023-05-11T06:48:25.899Z,55.26
2023-05-11T06:51:29.847Z,54.95
2023-05-11T06:54:35.949Z,54.47
2023-05-11T06:57:38.533Z,54.52
2023-05-11T07:00:41.033Z,54.27
2023-05-11T07:03:43.485Z,54.29
2023-05-11T07:07:06.360Z,53.76
2023-05-11T07:10:09.466Z,53.75
2023-05-11T07:13:13.216Z,53.43
2023-05-11T07:16:41.502Z,53.63
2023-05-11T07:19:44.776Z,53.30
2023-05-11T07:22:47.336Z,53.29
2023-05-11T07:25:49.738Z,53.04
2023-05-11T07:28:52.281Z,52.42
2023-05-11T07:32:30.058Z,51.75
2023-05-11T07:35:32.775Z,52.11
2023-05-11T07:38:36.555Z,51.85
2023-05-11T07:41:39.205Z,51.79
2023-05-11T07:44:41.685Z,51.80
2023-05-11T07:47:45.345Z,51.57
2023-05-11T07:50:49.541Z,51.57
2023-05-11T07:53:52.212Z,51.51
2023-05-11T07:56:55.367Z,51.40
2023-05-11T07:59:57.983Z,51.27
2023-05-11T08:03:02.139Z,51.33
2023-05-11T08:06:05.086Z,51.29
2023-05-11T08:09:07.489Z,51.04
2023-05-11T08:12:09.983Z,50.87
2023-05-11T08:15:12.333Z,50.73
2023-05-11T08:18:14.727Z,50.77
2023-05-11T08:21:17.699Z,50.50
2023-05-11T08:24:20.095Z,50.21
2023-05-11T08:27:22.569Z,50.41
2023-05-11T08:30:25.100Z,50.43
2023-05-11T08:36:53.745Z,50.40
2023-05-11T08:39:59.579Z,49.89
2023-05-11T08:43:05.807Z,50.06
2023-05-11T08:46:09.206Z,50.21
2023-05-11T08:49:14.572Z,49.71
2023-05-11T08:52:20.465Z,49.86
2023-05-11T08:55:26.581Z,49.25
2023-05-11T08:58:30.650Z,48.69
2023-05-11T09:01:35.865Z,48.14
2023-05-11T09:04:38.532Z,47.33
2023-05-11T09:07:44.732Z,46.47
2023-05-11T09:10:49.376Z,45.86
2023-05-11T09:13:52.184Z,45.17
2023-05-11T09:16:55.058Z,44.98
2023-05-11T09:20:05.334Z,44.84
2023-05-11T09:23:08.101Z,44.69
2023-05-11T09:26:17.994Z,44.54
2023-05-11T09:29:21.321Z,44.38
2023-05-11T09:32:24.542Z,44.35
2023-05-11T09:35:37.420Z,44.17
2023-05-11T09:38:57.236Z,44.53
2023-05-11T09:42:45.855Z,44.53
2023-05-11T09:45:55.824Z,45.69
2023-05-11T09:49:02.663Z,45.84
2023-05-11T09:52:05.742Z,46.27
2023-05-11T09:55:10.937Z,46.85
2023-05-11T09:58:13.790Z,47.09
2023-05-11T10:01:49.943Z,47.79
2023-05-11T10:04:57.306Z,48.59
2023-05-11T10:08:01.659Z,48.49
2023-05-11T10:11:05.053Z,48.53
2023-05-11T10:14:07.801Z,49.16
2023-05-11T10:17:11.274Z,49.25
2023-05-11T10:20:14.471Z,49.08
2023-05-11T10:23:17.809Z,49.39
2023-05-11T10:26:20.540Z,49.75
2023-05-11T10:29:23.901Z,49.64
2023-05-11T10:32:26.883Z,49.83
2023-05-11T10:35:30.520Z,49.94
2023-05-11T10:38:34.108Z,50.33
2023-05-11T10:41:52.592Z,50.23
2023-05-11T10:45:30.074Z,50.08
2023-05-11T10:48:47.620Z,50.14
2023-05-11T10:52:20.827Z,50.21
2023-05-11T10:55:51.020Z,50.40
2023-05-11T10:59:26.808Z,49.99
2023-05-11T11:02:31.675Z,50.01
2023-05-11T11:05:35.197Z,49.89
2023-05-11T11:09:01.079Z,49.91
2023-05-11T11:12:10.112Z,50.09
2023-05-11T11:15:12.480Z,50.33
2023-05-11T11:18:26.448Z,50.55
2023-05-11T11:21:42.839Z,50.46
2023-05-11T11:24:46.674Z,50.00
2023-05-11T11:27:49.257Z,50.05
2023-05-11T11:31:42.584Z,50.49
2023-05-11T11:34:50.095Z,50.51
2023-05-11T11:38:06.298Z,50.28
2023-05-11T11:41:31.186Z,50.64
2023-05-11T11:44:37.317Z,50.67
2023-05-11T11:47:40.404Z,50.75
2023-05-11T11:50:45.004Z,50.39
2023-05-11T11:53:51.248Z,50.52
2023-05-11T11:56:53.941Z,50.57
2023-05-11T11:59:56.554Z,50.43
2023-05-11T12:02:59.423Z,50.57
2023-05-11T12:06:02.529Z,50.54
2023-05-11T12:09:07.757Z,50.86
2023-05-11T12:12:10.263Z,50.65
2023-05-11T12:15:29.637Z,50.68
2023-05-11T12:18:32.134Z,50.30
2023-05-11T12:21:34.475Z,50.49
2023-05-11T12:24:41.511Z,49.35
2023-05-11T12:27:59.056Z,48.90
2023-05-11T12:31:01.705Z,47.87
2023-05-11T12:34:04.136Z,47.51
2023-05-11T12:37:06.685Z,47.64
2023-05-11T12:40:11.870Z,47.45
2023-05-11T12:43:18.394Z,47.06
2023-05-11T12:46:21.785Z,46.95
2023-05-11T12:49:26.654Z,46.88
2023-05-11T12:52:29.408Z,46.36
2023-05-11T12:55:31.986Z,46.59
2023-05-11T12:58:38.881Z,46.14
2023-05-11T13:01:44.149Z,46.52
2023-05-11T13:04:47.454Z,46.90
2023-05-11T13:08:00.260Z,47.11
2023-05-11T13:11:25.498Z,47.28
2023-05-11T13:14:31.173Z,47.46
2023-05-11T13:17:35.372Z,47.69
2023-05-11T13:20:38.175Z,47.70
2023-05-11T13:23:41.014Z,47.99
2023-05-11T13:26:43.355Z,48.13
2023-05-11T13:29:45.665Z,48.28
2023-05-11T13:32:48.052Z,48.39
2023-05-11T13:35:50.408Z,48.02
2023-05-11T13:38:52.721Z,48.42
2023-05-11T13:41:56.154Z,48.69
2023-05-11T13:44:58.602Z,48.39
2023-05-11T13:48:00.985Z,48.64
2023-05-11T13:51:03.438Z,48.67
2023-05-11T13:54:06.324Z,48.72
2023-05-11T13:57:08.817Z,48.05
2023-05-11T14:00:11.923Z,47.85
2023-05-11T14:03:14.584Z,47.63
2023-05-11T14:06:17.013Z,47.50
2023-05-11T14:09:19.438Z,47.63
2023-05-11T14:12:21.796Z,47.49
2023-05-11T14:15:24.220Z,47.20
2023-05-11T14:18:26.862Z,47.70
2023-05-11T14:21:29.383Z,47.67
2023-05-11T14:24:31.772Z,48.06
2023-05-11T14:27:34.155Z,48.18
2023-05-11T14:30:36.968Z,47.75
2023-05-11T14:33:39.330Z,48.04
2023-05-11T14:36:41.753Z,48.43
2023-05-11T14:39:44.201Z,48.07
2023-05-11T14:42:46.533Z,48.48
2023-05-11T14:45:48.899Z,47.78
2023-05-11T14:48:53.042Z,48.04
2023-05-11T14:51:55.514Z,48.05
2023-05-11T14:54:57.866Z,48.28
2023-05-11T14:58:02.602Z,48.33
2023-05-11T15:01:05.228Z,48.62
2023-05-11T15:04:07.660Z,48.89
2023-05-11T15:07:10.109Z,48.56
2023-05-11T15:10:12.504Z,48.37
2023-05-11T15:13:14.927Z,48.61
2023-05-11T15:16:17.305Z,48.88
2023-05-11T15:19:19.722Z,48.53
2023-05-11T15:22:22.658Z,48.79
2023-05-11T15:25:25.188Z,48.79
2023-05-11T15:28:28.276Z,48.68
2023-05-11T15:31:30.800Z,49.03
2023-05-11T15:34:39.485Z,49.07
2023-05-11T15:37:47.059Z,49.20
2023-05-11T15:40:49.506Z,49.05
2023-05-11T15:43:52.856Z,48.89
2023-05-11T15:46:55.278Z,49.19
2023-05-11T15:49:57.829Z,49.03
2023-05-11T15:53:01.178Z,49.33
2023-05-11T15:56:03.589Z,49.08
2023-05-11T15:59:06.066Z,49.42
2023-05-11T16:02:08.733Z,49.30
2023-05-11T16:05:11.429Z,49.36
2023-05-11T16:08:14.037Z,49.22
2023-05-11T16:11:16.634Z,48.86
2023-05-11T16:14:19.172Z,49.05
2023-05-11T16:17:21.588Z,49.40
2023-05-11T16:20:24.232Z,49.29
2023-05-11T16:23:26.643Z,49.28
2023-05-11T16:26:29.612Z,49.62
2023-05-11T16:29:32.239Z,49.34
2023-05-11T16:32:34.716Z,49.72
2023-05-11T16:35:37.109Z,49.57
2023-05-11T16:38:39.567Z,49.75
2023-05-11T16:41:42.023Z,49.71
2023-05-11T16:44:44.489Z,49.63
2023-05-11T16:47:47.402Z,49.74
2023-05-11T16:50:49.882Z,49.70
2023-05-11T16:53:52.352Z,49.97
2023-05-11T16:56:54.780Z,49.80
2023-05-11T16:59:58.126Z,49.95
2023-05-11T17:03:00.673Z,49.86
2023-05-11T17:06:03.206Z,49.80
2023-05-11T17:09:05.613Z,49.69
2023-05-11T17:12:10.555Z,49.83
2023-05-11T17:15:13.160Z,50.08
2023-05-11T17:18:15.693Z,49.84
2023-05-11T17:21:18.181Z,50.16
2023-05-11T17:24:21.596Z,49.95
2023-05-11T17:27:24.035Z,50.04
2023-05-11T17:30:39.703Z,50.31
2023-05-11T17:33:48.881Z,50.24
2023-05-11T17:36:51.318Z,50.26
2023-05-11T17:39:53.798Z,50.27
2023-05-11T17:42:56.253Z,50.37
2023-05-11T17:45:58.981Z,50.47
2023-05-11T17:49:01.750Z,50.27
2023-05-11T17:52:04.313Z,50.17
2023-05-11T17:55:07.348Z,50.67
2023-05-11T17:58:09.944Z,50.47
2023-05-11T18:01:16.768Z,50.63
2023-05-11T18:04:19.236Z,50.65
2023-05-11T18:07:21.664Z,50.62
2023-05-11T18:10:24.156Z,50.82
2023-05-11T18:13:28.678Z,50.62
2023-05-11T18:16:31.241Z,50.90
2023-05-11T18:19:33.702Z,50.87
2023-05-11T18:22:36.300Z,50.94
2023-05-11T18:25:38.779Z,51.00
2023-05-11T18:28:41.918Z,51.19
2023-05-11T18:31:44.310Z,50.93
2023-05-11T18:34:48.133Z,51.03
2023-05-11T18:37:50.790Z,51.10
2023-05-11T18:40:53.972Z,51.04
2023-05-11T18:43:56.578Z,51.22
2023-05-11T18:46:59.349Z,51.11
2023-05-11T18:50:02.265Z,51.25
2023-05-11T18:53:04.800Z,51.33
2023-05-11T18:56:07.202Z,51.35
2023-05-11T18:59:09.576Z,51.31
2023-05-11T19:02:12.644Z,51.63
2023-05-11T19:05:15.290Z,51.38
2023-05-11T19:08:18.737Z,51.42
2023-05-11T19:11:21.335Z,51.78
2023-05-11T19:14:23.959Z,51.70
2023-05-11T19:17:26.440Z,51.75
2023-05-11T19:20:28.903Z,51.69
2023-05-11T19:23:31.930Z,51.73
2023-05-11T19:26:36.540Z,51.71
2023-05-11T19:29:39.023Z,51.76
2023-05-11T19:32:43.691Z,51.60
2023-05-11T19:35:46.688Z,51.69
2023-05-11T19:38:50.470Z,51.81
2023-05-11T19:41:55.132Z,51.91
2023-05-11T19:44:57.519Z,52.03
2023-05-11T19:48:00.483Z,52.29
2023-05-11T19:51:02.937Z,52.02
2023-05-11T19:54:05.520Z,52.10
2023-05-11T19:57:08.043Z,51.91
2023-05-11T20:00:11.845Z,52.15
2023-05-11T20:03:14.365Z,52.07
2023-05-11T20:06:16.854Z,52.32
2023-05-11T20:09:19.577Z,52.22
2023-05-11T20:12:21.943Z,52.52
2023-05-11T20:15:24.329Z,52.30
2023-05-11T20:18:27.016Z,52.49
2023-05-11T20:21:29.589Z,52.52
2023-05-11T20:24:31.983Z,52.28
2023-05-11T20:27:34.397Z,52.52
2023-05-11T20:30:37.467Z,52.39
2023-05-11T20:36:48.761Z,52.66
2023-05-11T20:39:51.308Z,52.51
2023-05-11T20:42:53.696Z,52.73
2023-05-11T20:46:02.609Z,52.60
2023-05-11T20:49:06.144Z,52.92
2023-05-11T20:52:09.342Z,52.61
2023-05-11T20:55:12.147Z,52.79
2023-05-11T20:58:14.571Z,52.87
2023-05-11T21:01:16.988Z,52.87
2023-05-11T21:04:19.410Z,52.80
2023-05-11T21:07:23.085Z,52.87
2023-05-11T21:10:25.545Z,53.16
2023-05-11T21:13:27.943Z,52.90
2023-05-11T21:16:30.402Z,52.97
2023-05-11T21:19:32.812Z,53.29
2023-05-11T21:22:36.505Z,53.33
2023-05-11T21:25:39.347Z,53.18
2023-05-11T21:28:41.756Z,53.32
2023-05-11T21:31:44.147Z,53.42
2023-05-11T21:34:46.551Z,53.10
2023-05-11T21:37:50.109Z,53.41
2023-05-11T21:40:56.357Z,53.43
2023-05-11T21:43:59.565Z,53.39
2023-05-11T21:47:01.937Z,53.38
2023-05-11T21:50:05.202Z,53.39
2023-05-11T21:53:07.671Z,53.64
2023-05-11T21:56:10.082Z,53.61
2023-05-11T21:59:12.517Z,53.58
2023-05-11T22:02:15.093Z,53.50
2023-05-11T22:05:17.636Z,53.52
2023-05-11T22:08:19.972Z,53.44
2023-05-11T22:11:22.791Z,53.46
2023-05-11T22:14:25.292Z,53.70
2023-05-11T22:17:27.772Z,53.60
2023-05-11T22:20:31.814Z,53.92
2023-05-11T22:23:35.459Z,53.71
2023-05-11T22:26:37.837Z,54.02
2023-05-11T22:29:40.185Z,53.98
2023-05-11T22:32:42.609Z,53.88
2023-05-11T22:35:45.068Z,53.87
2023-05-11T22:38:47.564Z,54.14
2023-05-11T22:41:49.963Z,53.94
2023-05-11T22:44:52.406Z,53.65
2023-05-11T22:47:54.914Z,53.94
2023-05-11T22:50:57.307Z,54.29
2023-05-11T22:53:59.726Z,53.84
2023-05-11T22:57:03.527Z,53.95
2023-05-11T23:00:06.660Z,53.83
2023-05-11T23:03:09.136Z,54.11
2023-05-11T23:06:12.360Z,53.99
2023-05-11T23:09:16.006Z,54.00
2023-05-11T23:12:18.638Z,54.00
2023-05-11T23:15:21.237Z,54.35
2023-05-11T23:18:23.809Z,54.08
2023-05-11T23:21:26.375Z,54.18
2023-05-11T23:24:29.049Z,54.24
2023-05-11T23:27:31.454Z,54.11
2023-05-11T23:30:33.864Z,54.25
2023-05-11T23:33:36.462Z,54.33
2023-05-11T23:36:39.018Z,54.46
2023-05-11T23:39:41.564Z,54.21
2023-05-11T23:42:43.961Z,54.24
2023-05-11T23:45:46.351Z,54.33
2023-05-11T23:48:48.710Z,54.42
2023-05-11T23:51:51.080Z,54.34
2023-05-11T23:54:53.514Z,54.24
2023-05-11T23:57:58.795Z,54.54
